sensor_id;sensor_type;location;lat;lon;timestamp;pressure;altitude;pressure_sealevel;temperature;humidity
73383;BME280;61600;48.126;11.542;2023-03-14T00:02:14;94169.31;;;14.32;59.09
73383;BME280;61600;48.126;11.542;2023-03-14T00:04:40;94173.53;;;14.17;59.55
73383;BME280;61600;48.126;11.542;2023-03-14T00:07:06;94153.47;;;14.25;58.96
73383;BME280;61600;48.126;11.542;2023-03-14T00:09:31;94143.09;;;14.19;59.03
73383;BME280;61600;48.126;11.542;2023-03-14T00:11:57;94131.34;;;14.18;59.19
73383;BME280;61600;48.126;11.542;2023-03-14T00:14:23;94147.78;;;14.18;58.99
73383;BME280;61600;48.126;11.542;2023-03-14T00:16:49;94152.00;;;14.28;59.02
73383;BME280;61600;48.126;11.542;2023-03-14T00:19:15;94170.34;;;14.15;58.97
73383;BME280;61600;48.126;11.542;2023-03-14T00:21:42;94171.03;;;14.12;59.25
73383;BME280;61600;48.126;11.542;2023-03-14T00:24:08;94160.31;;;14.19;59.30
73383;BME280;61600;48.126;11.542;2023-03-14T00:26:34;94152.22;;;14.23;58.84
73383;BME280;61600;48.126;11.542;2023-03-14T00:28:59;94153.75;;;13.96;59.30
73383;BME280;61600;48.126;11.542;2023-03-14T00:31:25;94130.03;;;14.00;59.84
73383;BME280;61600;48.126;11.542;2023-03-14T00:33:52;94142.78;;;14.08;59.65
73383;BME280;61600;48.126;11.542;2023-03-14T00:36:18;94162.03;;;14.12;59.63
73383;BME280;61600;48.126;11.542;2023-03-14T00:38:47;94154.63;;;14.24;59.37
73383;BME280;61600;48.126;11.542;2023-03-14T00:41:16;94150.84;;;14.29;59.11
73383;BME280;61600;48.126;11.542;2023-03-14T00:43:42;94154.16;;;14.22;58.92
73383;BME280;61600;48.126;11.542;2023-03-14T00:46:09;94160.44;;;14.11;59.60
73383;BME280;61600;48.126;11.542;2023-03-14T00:48:35;94164.44;;;14.13;59.65
73383;BME280;61600;48.126;11.542;2023-03-14T00:51:02;94166.47;;;14.16;59.02
73383;BME280;61600;48.126;11.542;2023-03-14T00:53:28;94158.28;;;14.16;59.95
73383;BME280;61600;48.126;11.542;2023-03-14T00:55:53;94166.34;;;14.13;59.80
73383;BME280;61600;48.126;11.542;2023-03-14T00:58:19;94155.97;;;14.18;59.72
73383;BME280;61600;48.126;11.542;2023-03-14T01:00:45;94169.44;;;14.11;59.82
73383;BME280;61600;48.126;11.542;2023-03-14T01:03:13;94177.75;;;14.15;59.99
73383;BME280;61600;48.126;11.542;2023-03-14T01:05:40;94188.91;;;14.22;60.09
73383;BME280;61600;48.126;11.542;2023-03-14T01:08:06;94184.84;;;14.04;61.15
73383;BME280;61600;48.126;11.542;2023-03-14T01:10:37;94188.13;;;13.85;61.95
73383;BME280;61600;48.126;11.542;2023-03-14T01:13:02;94194.63;;;13.68;62.65
73383;BME280;61600;48.126;11.542;2023-03-14T01:15:28;94199.63;;;13.78;62.67
73383;BME280;61600;48.126;11.542;2023-03-14T01:17:54;94206.88;;;13.62;63.66
73383;BME280;61600;48.126;11.542;2023-03-14T01:20:20;94204.75;;;13.68;63.73
73383;BME280;61600;48.126;11.542;2023-03-14T01:22:45;94206.56;;;13.64;64.49
73383;BME280;61600;48.126;11.542;2023-03-14T01:25:14;94207.44;;;13.56;65.17
73383;BME280;61600;48.126;11.542;2023-03-14T01:27:40;94209.50;;;13.59;65.67
73383;BME280;61600;48.126;11.542;2023-03-14T01:30:07;94206.09;;;13.17;67.15
73383;BME280;61600;48.126;11.542;2023-03-14T01:32:33;94208.75;;;13.37;66.94
73383;BME280;61600;48.126;11.542;2023-03-14T01:34:59;94205.59;;;13.47;66.86
73383;BME280;61600;48.126;11.542;2023-03-14T01:37:25;94209.13;;;13.36;67.89
73383;BME280;61600;48.126;11.542;2023-03-14T01:39:50;94212.03;;;13.19;67.59
73383;BME280;61600;48.126;11.542;2023-03-14T01:42:16;94217.75;;;13.05;68.65
73383;BME280;61600;48.126;11.542;2023-03-14T01:44:59;94211.63;;;13.08;70.28
73383;BME280;61600;48.126;11.542;2023-03-14T01:47:25;94220.22;;;12.98;70.90
73383;BME280;61600;48.126;11.542;2023-03-14T01:49:54;94227.63;;;12.97;70.39
73383;BME280;61600;48.126;11.542;2023-03-14T01:52:40;94225.09;;;12.72;71.86
73383;BME280;61600;48.126;11.542;2023-03-14T01:55:23;94222.09;;;12.65;72.80
73383;BME280;61600;48.126;11.542;2023-03-14T01:58:00;94239.31;;;12.57;71.99
73383;BME280;61600;48.126;11.542;2023-03-14T02:00:28;94234.59;;;12.45;73.86
73383;BME280;61600;48.126;11.542;2023-03-14T02:02:58;94237.53;;;12.11;74.37
73383;BME280;61600;48.126;11.542;2023-03-14T02:05:27;94222.41;;;11.92;74.22
73383;BME280;61600;48.126;11.542;2023-03-14T02:07:56;94223.03;;;11.89;74.95
73383;BME280;61600;48.126;11.542;2023-03-14T02:10:27;94204.25;;;11.96;74.61
73383;BME280;61600;48.126;11.542;2023-03-14T02:12:56;94206.94;;;11.76;74.37
73383;BME280;61600;48.126;11.542;2023-03-14T02:15:23;94215.97;;;11.50;75.00
73383;BME280;61600;48.126;11.542;2023-03-14T02:17:49;94224.47;;;11.40;74.86
73383;BME280;61600;48.126;11.542;2023-03-14T02:23:08;94205.97;;;11.17;75.88
73383;BME280;61600;48.126;11.542;2023-03-14T02:28:11;94182.44;;;11.29;76.63
73383;BME280;61600;48.126;11.542;2023-03-14T02:30:37;94159.50;;;11.30;76.97
73383;BME280;61600;48.126;11.542;2023-03-14T02:33:05;94156.31;;;11.28;77.03
73383;BME280;61600;48.126;11.542;2023-03-14T02:35:55;94132.88;;;11.44;76.27
73383;BME280;61600;48.126;11.542;2023-03-14T02:38:39;94131.16;;;11.69;75.84
73383;BME280;61600;48.126;11.542;2023-03-14T02:41:07;94107.75;;;11.68;75.77
73383;BME280;61600;48.126;11.542;2023-03-14T02:43:33;94103.75;;;11.74;75.57
73383;BME280;61600;48.126;11.542;2023-03-14T02:46:00;94075.59;;;11.62;75.66
73383;BME280;61600;48.126;11.542;2023-03-14T02:50:56;94071.19;;;11.19;76.78
73383;BME280;61600;48.126;11.542;2023-03-14T02:53:28;94062.25;;;11.19;77.02
73383;BME280;61600;48.126;11.542;2023-03-14T02:55:54;94054.25;;;11.14;76.73
73383;BME280;61600;48.126;11.542;2023-03-14T02:58:20;94055.22;;;11.09;76.56
73383;BME280;61600;48.126;11.542;2023-03-14T03:00:46;94048.69;;;11.01;75.84
73383;BME280;61600;48.126;11.542;2023-03-14T03:03:12;94053.59;;;11.17;75.20
73383;BME280;61600;48.126;11.542;2023-03-14T03:05:38;94018.47;;;10.94;75.61
73383;BME280;61600;48.126;11.542;2023-03-14T03:08:04;94037.28;;;10.79;75.66
73383;BME280;61600;48.126;11.542;2023-03-14T03:10:30;94067.84;;;10.76;75.38
73383;BME280;61600;48.126;11.542;2023-03-14T03:12:56;94056.91;;;10.93;74.75
73383;BME280;61600;48.126;11.542;2023-03-14T03:15:22;94063.28;;;10.97;73.70
73383;BME280;61600;48.126;11.542;2023-03-14T03:17:48;94059.47;;;10.89;74.19
73383;BME280;61600;48.126;11.542;2023-03-14T03:20:14;94063.19;;;11.43;73.50
73383;BME280;61600;48.126;11.542;2023-03-14T03:22:40;94066.69;;;11.23;74.22
73383;BME280;61600;48.126;11.542;2023-03-14T03:25:07;94062.47;;;11.34;72.95
73383;BME280;61600;48.126;11.542;2023-03-14T03:27:34;94055.16;;;10.88;73.94
73383;BME280;61600;48.126;11.542;2023-03-14T03:30:00;94062.28;;;11.10;73.74
73383;BME280;61600;48.126;11.542;2023-03-14T03:32:26;94057.94;;;11.09;73.19
73383;BME280;61600;48.126;11.542;2023-03-14T03:34:52;94047.91;;;11.01;72.88
73383;BME280;61600;48.126;11.542;2023-03-14T03:37:18;94058.88;;;11.22;72.41
73383;BME280;61600;48.126;11.542;2023-03-14T03:39:44;94053.00;;;11.11;72.69
73383;BME280;61600;48.126;11.542;2023-03-14T03:42:10;94044.72;;;10.99;72.84
73383;BME280;61600;48.126;11.542;2023-03-14T03:44:37;94045.69;;;10.94;72.36
73383;BME280;61600;48.126;11.542;2023-03-14T03:47:03;94051.38;;;10.64;71.41
73383;BME280;61600;48.126;11.542;2023-03-14T03:49:32;94051.84;;;10.74;72.42
73383;BME280;61600;48.126;11.542;2023-03-14T03:51:58;94046.63;;;10.52;71.89
73383;BME280;61600;48.126;11.542;2023-03-14T03:54:24;94057.78;;;10.76;71.55
73383;BME280;61600;48.126;11.542;2023-03-14T03:56:50;94042.06;;;10.82;71.41
73383;BME280;61600;48.126;11.542;2023-03-14T03:59:17;94026.97;;;10.38;70.87
73383;BME280;61600;48.126;11.542;2023-03-14T04:01:51;94029.31;;;10.65;70.07
73383;BME280;61600;48.126;11.542;2023-03-14T04:04:16;94041.31;;;10.64;69.57
73383;BME280;61600;48.126;11.542;2023-03-14T04:06:42;94038.66;;;10.93;68.74
73383;BME280;61600;48.126;11.542;2023-03-14T04:09:09;94035.50;;;10.83;69.28
73383;BME280;61600;48.126;11.542;2023-03-14T04:11:35;94041.63;;;10.63;68.79
73383;BME280;61600;48.126;11.542;2023-03-14T04:14:01;94035.66;;;10.78;69.15
73383;BME280;61600;48.126;11.542;2023-03-14T04:16:27;94038.59;;;10.56;69.95
73383;BME280;61600;48.126;11.542;2023-03-14T04:18:52;94041.16;;;10.61;69.60
73383;BME280;61600;48.126;11.542;2023-03-14T04:21:19;94038.94;;;10.54;69.61
73383;BME280;61600;48.126;11.542;2023-03-14T04:23:44;94023.94;;;10.48;69.60
73383;BME280;61600;48.126;11.542;2023-03-14T04:26:10;94025.50;;;10.58;69.66
73383;BME280;61600;48.126;11.542;2023-03-14T04:28:36;94014.78;;;10.52;69.64
73383;BME280;61600;48.126;11.542;2023-03-14T04:31:14;94013.84;;;10.57;69.09
73383;BME280;61600;48.126;11.542;2023-03-14T04:33:40;94013.88;;;10.40;69.34
73383;BME280;61600;48.126;11.542;2023-03-14T04:36:06;94010.28;;;10.65;69.02
73383;BME280;61600;48.126;11.542;2023-03-14T04:38:32;93999.44;;;10.57;69.18
73383;BME280;61600;48.126;11.542;2023-03-14T04:40:58;93991.28;;;10.57;68.63
73383;BME280;61600;48.126;11.542;2023-03-14T04:43:25;94007.28;;;10.49;68.84
73383;BME280;61600;48.126;11.542;2023-03-14T04:45:53;94013.66;;;10.62;68.22
73383;BME280;61600;48.126;11.542;2023-03-14T04:48:20;94017.56;;;10.35;69.06
73383;BME280;61600;48.126;11.542;2023-03-14T04:50:46;93995.81;;;10.35;68.66
73383;BME280;61600;48.126;11.542;2023-03-14T04:53:13;94001.84;;;10.58;68.21
73383;BME280;61600;48.126;11.542;2023-03-14T04:55:39;93986.66;;;10.48;68.10
73383;BME280;61600;48.126;11.542;2023-03-14T04:58:05;93982.66;;;10.55;67.31
73383;BME280;61600;48.126;11.542;2023-03-14T05:00:31;93978.19;;;10.59;67.76
73383;BME280;61600;48.126;11.542;2023-03-14T05:02:57;93977.59;;;10.82;67.39
73383;BME280;61600;48.126;11.542;2023-03-14T05:05:23;93969.94;;;10.76;67.32
73383;BME280;61600;48.126;11.542;2023-03-14T05:07:49;93975.84;;;10.78;67.33
73383;BME280;61600;48.126;11.542;2023-03-14T05:10:15;93982.91;;;10.70;67.38
73383;BME280;61600;48.126;11.542;2023-03-14T05:12:41;93980.84;;;10.67;67.31
73383;BME280;61600;48.126;11.542;2023-03-14T05:15:08;93966.22;;;10.80;67.10
73383;BME280;61600;48.126;11.542;2023-03-14T05:17:34;93969.50;;;10.94;66.57
73383;BME280;61600;48.126;11.542;2023-03-14T05:20:00;93973.78;;;10.28;68.08
73383;BME280;61600;48.126;11.542;2023-03-14T05:22:25;93967.09;;;10.64;67.97
73383;BME280;61600;48.126;11.542;2023-03-14T05:24:51;93971.44;;;10.65;67.85
73383;BME280;61600;48.126;11.542;2023-03-14T05:27:22;93967.88;;;10.73;67.75
73383;BME280;61600;48.126;11.542;2023-03-14T05:29:48;93976.66;;;10.70;67.75
73383;BME280;61600;48.126;11.542;2023-03-14T05:32:14;93979.59;;;10.65;67.92
73383;BME280;61600;48.126;11.542;2023-03-14T05:34:41;93964.28;;;10.51;67.97
73383;BME280;61600;48.126;11.542;2023-03-14T05:37:10;93967.59;;;10.66;68.01
73383;BME280;61600;48.126;11.542;2023-03-14T05:39:35;93974.81;;;10.62;67.73
73383;BME280;61600;48.126;11.542;2023-03-14T05:42:01;93972.94;;;10.45;68.09
73383;BME280;61600;48.126;11.542;2023-03-14T05:44:27;93963.34;;;10.47;68.14
73383;BME280;61600;48.126;11.542;2023-03-14T05:46:53;93963.56;;;10.72;67.45
73383;BME280;61600;48.126;11.542;2023-03-14T05:49:18;93959.25;;;10.71;67.57
73383;BME280;61600;48.126;11.542;2023-03-14T05:51:44;93966.44;;;10.67;67.65
73383;BME280;61600;48.126;11.542;2023-03-14T05:54:10;93960.28;;;10.87;67.36
73383;BME280;61600;48.126;11.542;2023-03-14T05:56:35;93964.31;;;10.81;66.94
73383;BME280;61600;48.126;11.542;2023-03-14T05:59:01;93952.03;;;10.75;67.11
73383;BME280;61600;48.126;11.542;2023-03-14T06:01:29;93957.31;;;10.71;67.02
73383;BME280;61600;48.126;11.542;2023-03-14T06:03:55;93950.75;;;10.72;67.47
73383;BME280;61600;48.126;11.542;2023-03-14T06:06:21;93945.38;;;10.93;66.58
73383;BME280;61600;48.126;11.542;2023-03-14T06:08:46;93954.00;;;10.95;66.68
73383;BME280;61600;48.126;11.542;2023-03-14T06:11:12;93948.78;;;10.81;66.93
73383;BME280;61600;48.126;11.542;2023-03-14T06:13:38;93951.84;;;10.80;67.05
73383;BME280;61600;48.126;11.542;2023-03-14T06:16:04;93943.31;;;10.90;66.34
73383;BME280;61600;48.126;11.542;2023-03-14T06:18:30;93940.53;;;10.98;66.23
73383;BME280;61600;48.126;11.542;2023-03-14T06:20:56;93948.47;;;10.83;66.20
73383;BME280;61600;48.126;11.542;2023-03-14T06:23:22;93941.72;;;10.89;65.71
73383;BME280;61600;48.126;11.542;2023-03-14T06:25:48;93944.88;;;11.20;65.03
73383;BME280;61600;48.126;11.542;2023-03-14T06:28:14;93943.53;;;11.06;64.87
73383;BME280;61600;48.126;11.542;2023-03-14T06:30:39;93932.91;;;11.13;64.97
73383;BME280;61600;48.126;11.542;2023-03-14T06:33:05;93927.16;;;11.35;64.16
73383;BME280;61600;48.126;11.542;2023-03-14T06:35:31;93918.69;;;11.36;64.09
73383;BME280;61600;48.126;11.542;2023-03-14T06:37:57;93923.09;;;11.41;63.70
73383;BME280;61600;48.126;11.542;2023-03-14T06:40:22;93911.53;;;11.65;62.63
73383;BME280;61600;48.126;11.542;2023-03-14T06:42:48;93906.63;;;11.58;63.09
73383;BME280;61600;48.126;11.542;2023-03-14T06:45:14;93901.78;;;11.64;62.77
73383;BME280;61600;48.126;11.542;2023-03-14T06:47:40;93910.75;;;11.64;63.37
73383;BME280;61600;48.126;11.542;2023-03-14T06:50:07;93913.59;;;11.68;63.14
73383;BME280;61600;48.126;11.542;2023-03-14T06:52:33;93916.31;;;11.88;62.85
73383;BME280;61600;48.126;11.542;2023-03-14T06:54:59;93923.78;;;11.38;63.33
73383;BME280;61600;48.126;11.542;2023-03-14T06:57:25;93928.16;;;11.72;63.13
73383;BME280;61600;48.126;11.542;2023-03-14T06:59:51;93929.31;;;11.71;62.41
73383;BME280;61600;48.126;11.542;2023-03-14T07:02:17;93930.81;;;11.80;62.59
73383;BME280;61600;48.126;11.542;2023-03-14T07:04:43;93933.09;;;11.78;62.31
73383;BME280;61600;48.126;11.542;2023-03-14T07:07:09;93943.50;;;11.76;61.72
73383;BME280;61600;48.126;11.542;2023-03-14T07:09:35;93945.78;;;11.74;62.53
73383;BME280;61600;48.126;11.542;2023-03-14T07:12:02;93947.22;;;11.92;62.16
73383;BME280;61600;48.126;11.542;2023-03-14T07:14:30;93945.09;;;11.77;61.96
73383;BME280;61600;48.126;11.542;2023-03-14T07:16:55;93943.63;;;11.80;61.48
73383;BME280;61600;48.126;11.542;2023-03-14T07:19:21;93949.63;;;11.73;61.24
73383;BME280;61600;48.126;11.542;2023-03-14T07:21:47;93947.84;;;11.77;61.71
73383;BME280;61600;48.126;11.542;2023-03-14T07:24:13;93942.66;;;11.84;61.65
73383;BME280;61600;48.126;11.542;2023-03-14T07:26:39;93940.97;;;11.92;61.19
73383;BME280;61600;48.126;11.542;2023-03-14T07:29:05;93945.13;;;11.69;61.58
73383;BME280;61600;48.126;11.542;2023-03-14T07:31:31;93942.84;;;11.79;61.82
73383;BME280;61600;48.126;11.542;2023-03-14T07:33:57;93946.50;;;11.83;61.37
73383;BME280;61600;48.126;11.542;2023-03-14T07:36:23;93943.44;;;11.85;61.17
73383;BME280;61600;48.126;11.542;2023-03-14T07:38:51;93940.91;;;11.80;61.02
73383;BME280;61600;48.126;11.542;2023-03-14T07:41:17;93932.31;;;11.90;61.03
73383;BME280;61600;48.126;11.542;2023-03-14T07:43:43;93933.25;;;11.94;60.48
73383;BME280;61600;48.126;11.542;2023-03-14T07:46:09;93930.28;;;11.66;60.38
73383;BME280;61600;48.126;11.542;2023-03-14T07:48:35;93932.66;;;11.88;60.46
73383;BME280;61600;48.126;11.542;2023-03-14T07:51:01;93932.00;;;11.91;60.37
73383;BME280;61600;48.126;11.542;2023-03-14T07:53:27;93926.00;;;11.98;60.03
73383;BME280;61600;48.126;11.542;2023-03-14T07:55:54;93923.06;;;12.03;59.48
73383;BME280;61600;48.126;11.542;2023-03-14T07:58:20;93922.78;;;11.84;60.01
73383;BME280;61600;48.126;11.542;2023-03-14T08:00:50;93929.94;;;11.88;59.59
73383;BME280;61600;48.126;11.542;2023-03-14T08:03:17;93927.72;;;12.02;59.39
73383;BME280;61600;48.126;11.542;2023-03-14T08:05:43;93920.94;;;12.09;59.20
73383;BME280;61600;48.126;11.542;2023-03-14T08:08:09;93924.44;;;12.09;59.26
73383;BME280;61600;48.126;11.542;2023-03-14T08:10:35;93926.66;;;12.28;58.83
73383;BME280;61600;48.126;11.542;2023-03-14T08:13:01;93929.75;;;12.38;58.43
73383;BME280;61600;48.126;11.542;2023-03-14T08:15:29;93921.09;;;12.24;58.93
73383;BME280;61600;48.126;11.542;2023-03-14T08:17:56;93922.00;;;12.40;58.89
73383;BME280;61600;48.126;11.542;2023-03-14T08:20:25;93918.94;;;12.42;57.93
73383;BME280;61600;48.126;11.542;2023-03-14T08:22:52;93934.78;;;12.97;56.97
73383;BME280;61600;48.126;11.542;2023-03-14T08:25:17;93935.41;;;12.45;58.18
73383;BME280;61600;48.126;11.542;2023-03-14T08:27:43;93940.34;;;12.52;57.62
73383;BME280;61600;48.126;11.542;2023-03-14T08:30:12;93936.66;;;12.36;57.68
73383;BME280;61600;48.126;11.542;2023-03-14T08:32:38;93933.16;;;12.47;57.81
73383;BME280;61600;48.126;11.542;2023-03-14T08:35:06;93938.56;;;12.23;57.69
73383;BME280;61600;48.126;11.542;2023-03-14T08:37:33;93949.84;;;12.34;58.06
73383;BME280;61600;48.126;11.542;2023-03-14T08:40:01;93949.09;;;12.13;57.86
73383;BME280;61600;48.126;11.542;2023-03-14T08:42:30;93953.69;;;12.33;57.64
73383;BME280;61600;48.126;11.542;2023-03-14T08:44:56;93952.44;;;12.42;57.04
73383;BME280;61600;48.126;11.542;2023-03-14T08:47:22;93961.94;;;12.69;56.76
73383;BME280;61600;48.126;11.542;2023-03-14T08:49:47;93952.38;;;12.51;56.80
73383;BME280;61600;48.126;11.542;2023-03-14T08:52:13;93955.84;;;12.27;57.27
73383;BME280;61600;48.126;11.542;2023-03-14T08:54:40;93947.06;;;12.22;57.44
73383;BME280;61600;48.126;11.542;2023-03-14T08:57:05;93959.69;;;12.26;57.67
73383;BME280;61600;48.126;11.542;2023-03-14T08:59:31;93961.56;;;12.46;56.98
73383;BME280;61600;48.126;11.542;2023-03-14T09:01:57;93956.22;;;12.50;56.89
73383;BME280;61600;48.126;11.542;2023-03-14T09:04:23;93968.63;;;12.60;56.50
73383;BME280;61600;48.126;11.542;2023-03-14T09:06:49;93958.94;;;12.50;56.35
73383;BME280;61600;48.126;11.542;2023-03-14T09:09:15;93962.56;;;12.42;56.58
73383;BME280;61600;48.126;11.542;2023-03-14T09:11:41;93962.06;;;12.73;55.02
73383;BME280;61600;48.126;11.542;2023-03-14T09:14:06;93963.63;;;12.74;55.04
73383;BME280;61600;48.126;11.542;2023-03-14T09:16:33;93977.41;;;12.89;55.06
73383;BME280;61600;48.126;11.542;2023-03-14T09:18:59;93971.50;;;12.99;54.54
73383;BME280;61600;48.126;11.542;2023-03-14T09:21:26;93964.66;;;13.06;53.70
73383;BME280;61600;48.126;11.542;2023-03-14T09:23:52;93975.31;;;13.19;53.45
73383;BME280;61600;48.126;11.542;2023-03-14T09:26:19;93975.59;;;12.81;54.48
73383;BME280;61600;48.126;11.542;2023-03-14T09:28:45;93973.09;;;12.76;54.51
73383;BME280;61600;48.126;11.542;2023-03-14T09:31:12;93963.84;;;12.57;55.56
73383;BME280;61600;48.126;11.542;2023-03-14T09:33:38;93970.59;;;12.83;54.89
73383;BME280;61600;48.126;11.542;2023-03-14T09:36:04;93964.69;;;12.93;54.58
73383;BME280;61600;48.126;11.542;2023-03-14T09:38:30;93961.06;;;13.14;54.47
73383;BME280;61600;48.126;11.542;2023-03-14T09:41:00;93952.06;;;13.13;54.39
73383;BME280;61600;48.126;11.542;2023-03-14T09:43:29;93951.84;;;13.30;54.21
73383;BME280;61600;48.126;11.542;2023-03-14T09:45:57;93956.75;;;13.37;54.10
73383;BME280;61600;48.126;11.542;2023-03-14T09:48:29;93949.06;;;13.55;54.08
73383;BME280;61600;48.126;11.542;2023-03-14T09:50:58;93951.38;;;13.40;53.88
73383;BME280;61600;48.126;11.542;2023-03-14T09:53:36;93946.09;;;13.47;54.26
73383;BME280;61600;48.126;11.542;2023-03-14T09:56:17;93936.81;;;13.36;54.47
73383;BME280;61600;48.126;11.542;2023-03-14T09:58:51;93941.06;;;13.62;54.19
73383;BME280;61600;48.126;11.542;2023-03-14T10:01:26;93931.31;;;13.61;53.78
73383;BME280;61600;48.126;11.542;2023-03-14T10:03:55;93943.81;;;13.62;53.81
73383;BME280;61600;48.126;11.542;2023-03-14T10:06:24;93945.56;;;13.42;53.33
73383;BME280;61600;48.126;11.542;2023-03-14T10:08:51;93939.91;;;13.75;53.88
73383;BME280;61600;48.126;11.542;2023-03-14T10:11:19;93938.72;;;13.88;53.01
73383;BME280;61600;48.126;11.542;2023-03-14T10:14:05;93940.19;;;13.58;53.05
73383;BME280;61600;48.126;11.542;2023-03-14T10:16:33;93930.50;;;13.60;52.75
73383;BME280;61600;48.126;11.542;2023-03-14T10:19:10;93938.75;;;13.76;52.46
73383;BME280;61600;48.126;11.542;2023-03-14T10:21:44;93932.94;;;13.77;51.83
73383;BME280;61600;48.126;11.542;2023-03-14T10:26:48;93918.16;;;14.06;50.71
73383;BME280;61600;48.126;11.542;2023-03-14T10:29:14;93904.09;;;13.92;49.76
73383;BME280;61600;48.126;11.542;2023-03-14T10:31:59;93893.44;;;14.02;49.01
73383;BME280;61600;48.126;11.542;2023-03-14T10:34:29;93915.34;;;13.90;49.27
73383;BME280;61600;48.126;11.542;2023-03-14T10:37:03;93912.13;;;14.28;48.75
73383;BME280;61600;48.126;11.542;2023-03-14T10:42:29;93901.22;;;14.91;47.15
73383;BME280;61600;48.126;11.542;2023-03-14T10:45:05;93908.63;;;14.75;47.48
73383;BME280;61600;48.126;11.542;2023-03-14T10:47:33;93906.22;;;14.89;47.22
73383;BME280;61600;48.126;11.542;2023-03-14T10:50:25;93913.31;;;14.59;47.12
73383;BME280;61600;48.126;11.542;2023-03-14T10:52:53;93915.94;;;14.39;47.45
73383;BME280;61600;48.126;11.542;2023-03-14T10:55:20;93923.03;;;14.56;47.41
73383;BME280;61600;48.126;11.542;2023-03-14T10:57:47;93921.97;;;14.76;46.91
73383;BME280;61600;48.126;11.542;2023-03-14T11:08:04;93916.22;;;14.97;46.69
73383;BME280;61600;48.126;11.542;2023-03-14T11:10:35;93920.81;;;15.09;46.77
73383;BME280;61600;48.126;11.542;2023-03-14T11:13:19;93913.38;;;14.78;46.78
73383;BME280;61600;48.126;11.542;2023-03-14T11:26:48;93887.44;;;14.40;46.01
73383;BME280;61600;48.126;11.542;2023-03-14T11:29:26;93918.25;;;14.84;45.25
73383;BME280;61600;48.126;11.542;2023-03-14T11:31:55;93921.69;;;14.66;45.30
73383;BME280;61600;48.126;11.542;2023-03-14T11:34:53;93906.31;;;15.08;44.90
73383;BME280;61600;48.126;11.542;2023-03-14T11:37:29;93912.63;;;15.28;44.34
73383;BME280;61600;48.126;11.542;2023-03-14T11:40:17;93888.66;;;15.40;43.96
73383;BME280;61600;48.126;11.542;2023-03-14T11:42:48;93887.88;;;15.24;44.51
73383;BME280;61600;48.126;11.542;2023-03-14T11:45:25;93883.91;;;14.87;45.94
73383;BME280;61600;48.126;11.542;2023-03-14T11:50:33;93896.97;;;14.78;45.40
73383;BME280;61600;48.126;11.542;2023-03-14T11:53:09;93889.13;;;14.76;45.81
73383;BME280;61600;48.126;11.542;2023-03-14T11:55:41;93897.41;;;14.48;46.81
73383;BME280;61600;48.126;11.542;2023-03-14T11:58:20;93895.72;;;14.28;47.08
73383;BME280;61600;48.126;11.542;2023-03-14T12:00:51;93891.34;;;14.55;46.45
73383;BME280;61600;48.126;11.542;2023-03-14T12:06:22;93899.97;;;14.73;45.75
73383;BME280;61600;48.126;11.542;2023-03-14T12:08:56;93886.41;;;15.27;45.14
73383;BME280;61600;48.126;11.542;2023-03-14T12:14:01;93879.31;;;14.91;45.55
73383;BME280;61600;48.126;11.542;2023-03-14T12:16:38;93888.66;;;14.90;46.20
73383;BME280;61600;48.126;11.542;2023-03-14T12:24:18;93869.22;;;14.32;46.61
73383;BME280;61600;48.126;11.542;2023-03-14T12:27:00;93869.34;;;14.36;46.58
73383;BME280;61600;48.126;11.542;2023-03-14T12:29:26;93874.81;;;14.52;45.87
73383;BME280;61600;48.126;11.542;2023-03-14T12:32:29;93886.91;;;14.82;45.77
73383;BME280;61600;48.126;11.542;2023-03-14T12:34:53;93880.44;;;14.90;45.36
73383;BME280;61600;48.126;11.542;2023-03-14T12:40:20;93892.47;;;14.70;46.07
73383;BME280;61600;48.126;11.542;2023-03-14T12:43:01;93902.88;;;14.64;46.15
73383;BME280;61600;48.126;11.542;2023-03-14T12:45:31;93883.38;;;14.66;46.32
73383;BME280;61600;48.126;11.542;2023-03-14T12:50:46;93892.31;;;15.13;45.56
73383;BME280;61600;48.126;11.542;2023-03-14T13:01:21;93895.53;;;15.15;45.55
73383;BME280;61600;48.126;11.542;2023-03-14T13:03:55;93914.09;;;14.75;46.41
73383;BME280;61600;48.126;11.542;2023-03-14T13:06:49;93908.31;;;14.33;47.34
73383;BME280;61600;48.126;11.542;2023-03-14T13:12:13;93933.81;;;14.21;47.98
73383;BME280;61600;48.126;11.542;2023-03-14T13:14:45;93917.97;;;14.15;48.42
73383;BME280;61600;48.126;11.542;2023-03-14T13:17:33;93905.69;;;13.93;47.89
73383;BME280;61600;48.126;11.542;2023-03-14T13:20:13;93946.72;;;13.81;49.07
73383;BME280;61600;48.126;11.542;2023-03-14T13:22:46;93925.03;;;14.16;48.06
73383;BME280;61600;48.126;11.542;2023-03-14T13:25:12;93923.84;;;14.01;48.66
73383;BME280;61600;48.126;11.542;2023-03-14T13:27:38;93956.63;;;14.13;48.43
73383;BME280;61600;48.126;11.542;2023-03-14T13:30:15;93932.09;;;14.17;48.96
73383;BME280;61600;48.126;11.542;2023-03-14T13:32:43;93965.31;;;13.63;50.21
73383;BME280;61600;48.126;11.542;2023-03-14T13:35:25;93948.84;;;13.47;50.94
73383;BME280;61600;48.126;11.542;2023-03-14T13:37:54;93956.31;;;13.23;51.03
73383;BME280;61600;48.126;11.542;2023-03-14T13:40:26;93955.25;;;13.27;51.36
73383;BME280;61600;48.126;11.542;2023-03-14T13:43:30;94006.53;;;12.97;52.02
73383;BME280;61600;48.126;11.542;2023-03-14T13:46:25;93973.53;;;12.78;52.86
73383;BME280;61600;48.126;11.542;2023-03-14T13:49:03;93989.00;;;12.86;53.33
73383;BME280;61600;48.126;11.542;2023-03-14T13:51:30;93995.38;;;12.33;57.02
73383;BME280;61600;48.126;11.542;2023-03-14T13:53:58;94017.81;;;11.85;59.16
73383;BME280;61600;48.126;11.542;2023-03-14T13:56:27;94021.13;;;11.62;60.84
73383;BME280;61600;48.126;11.542;2023-03-14T13:58:53;94016.41;;;11.29;62.73
73383;BME280;61600;48.126;11.542;2023-03-14T14:03:51;94036.38;;;11.04;63.23